Rivervale, Arkansas
Current Conditions -  °F | °C
As of 7:53 AM on Wednesday 22 Oct 2014 (Local Time) from KJBR Reporting Station
Clear Clear  
Wind Chill: 50°   Ceiling: Unl
Heat Index: 50°   Visibility: 10mi
Dew Point: 45°   Wind: 7mph
Humidity: 83%   Direction: 40°NE
Pressure: 30.25"   Gusts: NA
Location:  35.67°N, 90.34°W
Report Text: KJBR 221253Z AUTO 04006KT 10SM CLR 10/07 A3025 RMK AO2 SLP241 T01000072
Loading
Personal Weather Stations






























Interactive Weather Map
Tropical Storm Tracking
New forecast layout! Learn more

10-Day Weather Forecast

Advertisements
Track Severe Weather on mobile